createdAt,value
2018-10-09T00:01:02.606Z,101874.19
2018-10-09T00:03:31.868Z,101875.56
2018-10-09T00:06:02.249Z,101874.17
2018-10-09T00:08:31.324Z,101875.24
2018-10-09T00:11:00.422Z,101884.79
2018-10-09T00:13:29.493Z,101880.94
2018-10-09T00:15:58.542Z,101875.98
2018-10-09T00:18:28.949Z,101876.52
2018-10-09T00:20:57.963Z,101880.86
2018-10-09T00:23:27.075Z,101878.11
2018-10-09T00:25:56.174Z,101885.17
2018-10-09T00:28:25.265Z,101874.75
2018-10-09T00:30:54.333Z,101873.93
2018-10-09T00:33:23.352Z,101875.53
2018-10-09T00:35:52.444Z,101873.57
2018-10-09T00:38:22.026Z,101872.71
2018-10-09T00:40:51.122Z,101864.22
2018-10-09T00:43:20.158Z,101865.86
2018-10-09T00:45:49.244Z,101858.20
2018-10-09T00:48:18.313Z,101854.91
2018-10-09T00:50:47.441Z,101862.80
2018-10-09T00:53:16.510Z,101863.06
2018-10-09T00:55:45.638Z,101863.59
2018-10-09T00:58:14.755Z,101864.13
2018-10-09T01:00:43.779Z,101860.30
2018-10-09T01:03:12.820Z,101858.11
2018-10-09T01:05:41.991Z,101857.04
2018-10-09T01:08:11.117Z,101855.91
2018-10-09T01:10:40.211Z,101855.64
2018-10-09T01:13:09.313Z,101855.91
2018-10-09T01:15:38.437Z,101849.35
2018-10-09T01:18:07.480Z,101856.41
2018-10-09T01:20:37.314Z,101847.13
2018-10-09T01:23:07.204Z,101841.66
2018-10-09T01:25:36.998Z,101846.55
2018-10-09T01:28:06.044Z,101841.36
2018-10-09T01:30:35.460Z,101839.73
2018-10-09T01:33:04.822Z,101835.94
2018-10-09T01:35:34.024Z,101831.34
2018-10-09T01:38:03.176Z,101829.20
2018-10-09T01:40:32.242Z,101837.16
2018-10-09T01:43:01.243Z,101836.63
2018-10-09T01:45:30.284Z,101827.89
2018-10-09T01:47:59.339Z,101822.73
2018-10-09T01:50:28.400Z,101821.07
2018-10-09T01:52:57.422Z,101814.25
2018-10-09T01:55:26.513Z,101810.15
2018-10-09T01:57:55.687Z,101814.25
2018-10-09T02:00:24.790Z,101802.49
2018-10-09T02:02:53.813Z,101803.59
2018-10-09T02:05:22.900Z,101806.33
2018-10-09T02:07:52.520Z,101806.83
2018-10-09T02:10:21.626Z,101800.81
2018-10-09T02:12:51.295Z,101797.81
2018-10-09T02:15:21.185Z,101793.69
2018-10-09T02:17:50.339Z,101798.29
2018-10-09T02:20:19.476Z,101797.19
2018-10-09T02:22:48.493Z,101798.50
2018-10-09T02:25:17.685Z,101797.41
2018-10-09T02:27:46.719Z,101788.09
2018-10-09T02:30:15.831Z,101792.41
2018-10-09T02:32:44.889Z,101793.45
2018-10-09T02:35:13.913Z,101787.95
2018-10-09T02:37:42.979Z,101790.39
2018-10-09T02:40:11.980Z,101779.47
2018-10-09T02:42:41.041Z,101780.01
2018-10-09T02:45:10.097Z,101768.53
2018-10-09T02:47:39.098Z,101765.77
2018-10-09T02:50:08.346Z,101758.91
2018-10-09T02:52:37.545Z,101757.78
2018-10-09T02:55:06.763Z,101761.04
2018-10-09T02:57:35.834Z,101764.83
2018-10-09T03:00:04.977Z,101757.45
2018-10-09T03:02:33.975Z,101754.95
2018-10-09T03:05:03.330Z,101758.24
2018-10-09T03:07:32.575Z,101761.77
2018-10-09T03:10:01.683Z,101760.09
2018-10-09T03:12:30.732Z,101763.39
2018-10-09T03:15:00.623Z,101762.30
2018-10-09T03:17:29.711Z,101755.74
2018-10-09T03:19:58.754Z,101753.81
2018-10-09T03:22:27.771Z,101749.69
2018-10-09T03:24:56.852Z,101746.43
2018-10-09T03:27:25.993Z,101749.95
2018-10-09T03:29:55.040Z,101754.04
2018-10-09T03:32:24.243Z,101747.75
2018-10-09T03:34:53.257Z,101749.11
2018-10-09T03:37:22.399Z,101746.62
2018-10-09T03:39:51.877Z,101742.22
2018-10-09T03:42:20.911Z,101744.64
2018-10-09T03:44:50.082Z,101741.27
2018-10-09T03:47:19.226Z,101740.16
2018-10-09T03:49:48.260Z,101733.31
2018-10-09T03:52:17.343Z,101733.05
2018-10-09T03:54:46.482Z,101730.81
2018-10-09T03:57:15.841Z,101730.55
2018-10-09T03:59:44.972Z,101726.38
2018-10-09T04:02:14.038Z,101727.44
2018-10-09T04:04:43.210Z,101713.77
2018-10-09T04:07:12.243Z,101718.66
2018-10-09T04:09:42.641Z,101718.38
2018-10-09T04:12:11.720Z,101715.36
2018-10-09T04:14:40.755Z,101714.00
2018-10-09T04:17:09.824Z,101705.56
2018-10-09T04:19:38.864Z,101712.94
2018-10-09T04:22:08.604Z,101709.91
2018-10-09T04:24:37.728Z,101709.60
2018-10-09T04:27:06.810Z,101707.09
2018-10-09T04:29:35.862Z,101709.81
2018-10-09T04:32:05.057Z,101706.78
2018-10-09T04:34:34.282Z,101711.91
2018-10-09T04:37:04.309Z,101704.81
2018-10-09T04:39:33.420Z,101699.61
2018-10-09T04:42:02.500Z,101699.53
2018-10-09T04:44:31.530Z,101697.38
2018-10-09T04:47:00.598Z,101702.52
2018-10-09T04:49:29.673Z,101697.64
2018-10-09T04:51:59.639Z,101700.36
2018-10-09T04:54:29.028Z,101697.64
2018-10-09T04:56:58.055Z,101695.17
2018-10-09T04:59:27.140Z,101691.61
2018-10-09T05:01:56.260Z,101702.46
2018-10-09T05:04:25.297Z,101693.15
2018-10-09T05:06:54.421Z,101705.09
2018-10-09T05:09:23.494Z,101700.48
2018-10-09T05:11:52.676Z,101703.47
2018-10-09T05:14:21.801Z,101697.53
2018-10-09T05:16:50.813Z,101699.42
2018-10-09T05:19:19.886Z,101708.37
2018-10-09T05:21:49.517Z,101711.87
2018-10-09T05:24:18.546Z,101709.11
2018-10-09T05:26:47.841Z,101717.80
2018-10-09T05:29:16.877Z,101714.77
2018-10-09T05:31:46.825Z,101713.72
2018-10-09T05:34:15.920Z,101718.38
2018-10-09T05:36:45.018Z,101719.00
2018-10-09T05:39:14.002Z,101714.18
2018-10-09T05:41:43.116Z,101710.15
2018-10-09T05:44:23.814Z,101719.73
2018-10-09T05:46:52.914Z,101714.82
2018-10-09T05:49:22.385Z,101716.22
2018-10-09T05:51:51.726Z,101711.62
2018-10-09T05:54:20.810Z,101715.70
2018-10-09T05:56:49.964Z,101714.64
2018-10-09T05:59:19.004Z,101717.36
2018-10-09T06:01:48.785Z,101715.70
2018-10-09T06:04:17.885Z,101712.72
2018-10-09T06:06:46.973Z,101711.93
2018-10-09T06:09:16.133Z,101715.83
2018-10-09T06:11:45.268Z,101715.04
2018-10-09T06:14:14.381Z,101718.83
2018-10-09T06:16:43.498Z,101724.58
2018-10-09T06:19:12.808Z,101725.99
2018-10-09T06:21:42.488Z,101726.07
2018-10-09T06:24:11.919Z,101724.45
2018-10-09T06:26:41.416Z,101725.36
2018-10-09T06:29:10.522Z,101721.80
2018-10-09T06:31:39.764Z,101720.63
2018-10-09T06:34:11.045Z,101725.23
2018-10-09T06:36:41.107Z,101731.74
2018-10-09T06:39:11.573Z,101726.83
2018-10-09T06:41:42.229Z,101729.55
2018-10-09T06:44:11.656Z,101730.64
2018-10-09T06:46:40.757Z,101734.47
2018-10-09T06:49:11.003Z,101735.30
2018-10-09T06:51:40.096Z,101729.28
2018-10-09T06:54:09.308Z,101737.23
2018-10-09T06:56:42.793Z,101738.87
2018-10-09T06:59:11.974Z,101739.13
2018-10-09T07:01:42.034Z,101742.65
2018-10-09T07:04:11.193Z,101740.75
2018-10-09T07:06:40.469Z,101737.50
2018-10-09T07:09:11.752Z,101740.80
2018-10-09T07:11:40.960Z,101746.33
2018-10-09T07:14:11.300Z,101740.34
2018-10-09T07:16:40.588Z,101746.41
2018-10-09T07:19:13.267Z,101735.89
2018-10-09T07:21:43.326Z,101728.18
2018-10-09T07:24:12.873Z,101743.23
2018-10-09T07:26:42.296Z,101740.05
2018-10-09T07:29:11.391Z,101732.70
2018-10-09T07:31:42.332Z,101733.14
2018-10-09T07:34:11.586Z,101732.70
2018-10-09T07:36:40.666Z,101726.48
2018-10-09T07:39:12.838Z,101732.43
2018-10-09T07:41:44.958Z,101730.94
2018-10-09T07:44:14.117Z,101727.28
2018-10-09T07:46:43.329Z,101736.14
2018-10-09T07:49:12.565Z,101729.64
2018-10-09T07:51:41.621Z,101727.48
2018-10-09T07:54:10.955Z,101728.62
2018-10-09T07:56:41.282Z,101735.70
2018-10-09T07:59:10.777Z,101740.34
2018-10-09T08:01:44.258Z,101733.75
2018-10-09T08:04:13.630Z,101738.92
2018-10-09T08:06:42.964Z,101737.02
2018-10-09T08:09:12.981Z,101745.73
2018-10-09T08:11:43.232Z,101744.34
2018-10-09T08:14:16.582Z,101747.86
2018-10-09T08:16:45.625Z,101752.75
2018-10-09T08:19:14.776Z,101755.73
2018-10-09T08:21:44.684Z,101753.80
2018-10-09T08:24:14.010Z,101750.52
2018-10-09T08:26:43.235Z,101752.45
2018-10-09T08:29:12.326Z,101744.80
2018-10-09T08:31:41.401Z,101748.66
2018-10-09T08:36:43.907Z,101746.77
2018-10-09T08:39:13.000Z,101753.05
2018-10-09T08:41:42.047Z,101749.78
2018-10-09T08:46:44.550Z,101756.65
2018-10-09T08:49:16.808Z,101755.29
2018-10-09T08:51:46.657Z,101752.86
2018-10-09T08:54:16.801Z,101746.56
2018-10-09T08:56:45.865Z,101743.30
2018-10-09T08:59:15.016Z,101745.22
2018-10-09T09:01:44.110Z,101754.53
2018-10-09T09:04:13.321Z,101742.51
2018-10-09T09:06:42.502Z,101756.45
2018-10-09T09:09:13.819Z,101747.42
2018-10-09T09:11:42.975Z,101745.80
2018-10-09T09:14:12.057Z,101747.73
2018-10-09T09:16:41.195Z,101749.91
2018-10-09T09:19:10.799Z,101760.59
2018-10-09T09:21:41.086Z,101756.22
2018-10-09T09:24:11.484Z,101761.12
2018-10-09T09:26:40.743Z,101761.42
2018-10-09T09:29:10.111Z,101760.88
2018-10-09T09:31:39.327Z,101751.61
2018-10-09T09:34:08.442Z,101755.98
2018-10-09T09:36:38.531Z,101750.78
2018-10-09T09:39:09.519Z,101741.45
2018-10-09T09:41:39.074Z,101738.70
2018-10-09T09:44:08.785Z,101741.70
2018-10-09T09:46:38.443Z,101738.44
2018-10-09T09:49:08.068Z,101742.25
2018-10-09T09:51:37.188Z,101738.16
2018-10-09T09:54:10.953Z,101736.77
2018-10-09T09:56:41.048Z,101743.34
2018-10-09T09:59:12.075Z,101750.42
2018-10-09T10:01:41.765Z,101747.95
2018-10-09T10:04:12.195Z,101745.50
2018-10-09T10:06:41.625Z,101745.20
2018-10-09T10:09:12.400Z,101746.30
2018-10-09T10:11:42.407Z,101738.08
2018-10-09T10:14:11.688Z,101742.96
2018-10-09T10:16:40.773Z,101740.75
2018-10-09T10:19:11.052Z,101737.18
2018-10-09T10:21:41.336Z,101736.87
2018-10-09T10:24:10.651Z,101737.67
2018-10-09T10:26:39.822Z,101740.12
2018-10-09T10:29:09.145Z,101741.17
2018-10-09T10:31:38.410Z,101731.55
2018-10-09T10:34:07.658Z,101735.30
2018-10-09T10:36:36.807Z,101731.43
2018-10-09T10:39:09.574Z,101729.98
2018-10-09T10:41:40.859Z,101732.72
2018-10-09T10:44:10.422Z,101735.66
2018-10-09T10:46:40.681Z,101735.02
2018-10-09T10:49:12.068Z,101741.25
2018-10-09T10:51:41.404Z,101739.59
2018-10-09T10:54:10.541Z,101734.67
2018-10-09T10:56:39.718Z,101735.22
2018-10-09T10:59:09.043Z,101728.50
2018-10-09T11:01:42.338Z,101720.74
2018-10-09T11:04:14.884Z,101726.75
2018-10-09T11:06:44.064Z,101724.83
2018-10-09T11:09:14.249Z,101710.78
2018-10-09T11:11:43.476Z,101719.27
2018-10-09T11:14:12.734Z,101709.36
2018-10-09T11:16:41.915Z,101715.94
2018-10-09T11:19:11.141Z,101717.13
2018-10-09T11:21:40.331Z,101725.94
2018-10-09T11:24:09.638Z,101722.45
2018-10-09T11:26:38.845Z,101724.19
2018-10-09T11:29:08.009Z,101730.77
2018-10-09T11:31:37.130Z,101726.05
2018-10-09T11:34:06.340Z,101720.48
2018-10-09T11:36:35.612Z,101720.41
2018-10-09T11:39:05.566Z,101719.53
2018-10-09T11:41:34.821Z,101715.41
2018-10-09T11:44:04.483Z,101719.29
2018-10-09T11:46:34.276Z,101719.62
2018-10-09T11:49:03.470Z,101713.05
2018-10-09T11:51:32.681Z,101707.36
2018-10-09T11:54:01.916Z,101715.06
2018-10-09T11:56:32.022Z,101711.78
2018-10-09T11:59:01.282Z,101706.06
2018-10-09T12:01:30.425Z,101704.44
2018-10-09T12:04:00.632Z,101712.44
2018-10-09T12:06:29.899Z,101723.17
2018-10-09T12:08:59.345Z,101722.34
2018-10-09T12:11:28.668Z,101714.65
2018-10-09T12:13:57.821Z,101714.94
2018-10-09T12:16:27.676Z,101708.37
2018-10-09T12:18:56.853Z,101713.27
2018-10-09T12:21:26.198Z,101705.08
2018-10-09T12:23:55.547Z,101698.17
2018-10-09T12:26:24.728Z,101697.63
2018-10-09T12:28:54.973Z,101704.20
2018-10-09T12:31:24.229Z,101700.08
2018-10-09T12:33:54.087Z,101699.55
2018-10-09T12:36:23.427Z,101699.84
2018-10-09T12:38:52.675Z,101701.46
2018-10-09T12:41:22.372Z,101690.23
2018-10-09T12:43:51.597Z,101691.61
2018-10-09T12:46:20.769Z,101694.91
2018-10-09T12:48:50.004Z,101694.91
2018-10-09T12:51:19.147Z,101692.44
2018-10-09T12:53:48.291Z,101690.52
2018-10-09T12:56:17.496Z,101683.67
2018-10-09T12:58:46.591Z,101688.58
2018-10-09T13:01:15.827Z,101684.46
2018-10-09T13:03:46.004Z,101683.91
2018-10-09T13:06:15.832Z,101679.27
2018-10-09T13:08:45.018Z,101679.27
2018-10-09T13:11:14.218Z,101672.95
2018-10-09T13:13:43.900Z,101676.81
2018-10-09T13:16:13.037Z,101676.81
2018-10-09T13:18:45.133Z,101673.77
2018-10-09T13:21:14.488Z,101679.80
2018-10-09T13:23:43.878Z,101672.64
2018-10-09T13:26:12.937Z,101666.31
2018-10-09T13:28:42.095Z,101665.73
2018-10-09T13:31:11.275Z,101679.98
2018-10-09T13:33:40.392Z,101664.05
2018-10-09T13:36:09.678Z,101662.14
2018-10-09T13:38:39.719Z,101658.03
2018-10-09T13:41:09.028Z,101666.48
2018-10-09T13:43:39.495Z,101666.73
2018-10-09T13:46:09.541Z,101658.75
2018-10-09T13:48:38.856Z,101657.36
2018-10-09T13:51:08.335Z,101638.73
2018-10-09T13:53:38.194Z,101645.55
2018-10-09T13:56:09.791Z,101649.97
2018-10-09T13:58:40.040Z,101645.59
2018-10-09T14:01:21.114Z,101638.98
2018-10-09T14:03:50.444Z,101635.14
2018-10-09T14:06:19.773Z,101634.57
2018-10-09T14:08:48.966Z,101635.93
2018-10-09T14:11:18.321Z,101633.44
2018-10-09T14:13:47.659Z,101627.94
2018-10-09T14:16:16.916Z,101629.02
2018-10-09T14:18:46.011Z,101628.75
2018-10-09T14:21:15.071Z,101618.59
2018-10-09T14:23:44.511Z,101621.58
2018-10-09T14:26:15.932Z,101621.86
2018-10-09T14:28:47.008Z,101623.48
2018-10-09T14:31:16.200Z,101617.74
2018-10-09T14:33:46.332Z,101621.03
2018-10-09T14:36:20.085Z,101615.55
2018-10-09T14:38:49.555Z,101613.34
2018-10-09T14:41:18.877Z,101613.09
2018-10-09T14:43:48.548Z,101608.16
2018-10-09T14:46:17.875Z,101608.97
2018-10-09T14:48:47.362Z,101613.92
2018-10-09T14:51:16.616Z,101600.73
2018-10-09T14:53:46.682Z,101603.73
2018-10-09T14:56:16.098Z,101606.76
2018-10-09T14:58:45.688Z,101611.66
2018-10-09T15:01:18.056Z,101608.08
2018-10-09T15:03:48.074Z,101614.16
2018-10-09T15:06:17.534Z,101611.70
2018-10-09T15:08:46.681Z,101615.00
2018-10-09T15:11:16.447Z,101609.50
2018-10-09T15:13:45.890Z,101608.66
2018-10-09T15:16:15.844Z,101615.00
2018-10-09T15:18:44.996Z,101619.64
2018-10-09T15:21:14.311Z,101607.53
2018-10-09T15:23:43.570Z,101611.41
2018-10-09T15:26:12.845Z,101612.25
2018-10-09T15:28:42.926Z,101606.76
2018-10-09T15:31:12.109Z,101603.73
2018-10-09T15:33:41.184Z,101600.98
2018-10-09T15:36:10.619Z,101605.38
2018-10-09T15:38:39.869Z,101605.67
2018-10-09T15:41:09.128Z,101598.02
2018-10-09T15:43:38.605Z,101597.74
2018-10-09T15:46:08.494Z,101602.16
2018-10-09T15:48:37.865Z,101598.59
2018-10-09T15:51:07.917Z,101601.67
2018-10-09T15:53:37.067Z,101602.52
2018-10-09T15:56:06.240Z,101607.48
2018-10-09T15:58:35.332Z,101599.25
2018-10-09T16:01:04.530Z,101601.47
2018-10-09T16:03:34.664Z,101594.91
2018-10-09T16:06:05.622Z,101594.12
2018-10-09T16:08:35.502Z,101589.47
2018-10-09T16:11:04.793Z,101587.86
2018-10-09T16:13:37.134Z,101588.12
2018-10-09T16:16:06.391Z,101589.78
2018-10-09T16:18:37.609Z,101588.70
2018-10-09T16:21:07.045Z,101578.62
2018-10-09T16:23:37.885Z,101577.50
2018-10-09T16:26:07.295Z,101587.69
2018-10-09T16:28:36.383Z,101584.66
2018-10-09T16:31:05.675Z,101578.92
2018-10-09T16:33:35.007Z,101577.56
2018-10-09T16:36:05.083Z,101581.15
2018-10-09T16:38:34.411Z,101586.40
2018-10-09T16:41:03.782Z,101587.23
2018-10-09T16:43:33.146Z,101588.38
2018-10-09T16:46:02.511Z,101582.64
2018-10-09T16:48:31.607Z,101578.58
2018-10-09T16:51:00.711Z,101582.70
2018-10-09T16:53:30.291Z,101578.89
2018-10-09T16:55:59.438Z,101573.98
2018-10-09T16:58:28.631Z,101579.52
2018-10-09T17:00:57.652Z,101568.61
2018-10-09T17:03:26.797Z,101567.25
2018-10-09T17:05:55.915Z,101573.32
2018-10-09T17:08:25.338Z,101577.20
2018-10-09T17:10:54.708Z,101575.63
2018-10-09T17:13:23.823Z,101582.23
2018-10-09T17:15:53.367Z,101584.16
2018-10-09T17:18:22.695Z,101576.81
2018-10-09T17:20:51.984Z,101573.57
2018-10-09T17:23:21.135Z,101575.48
2018-10-09T17:25:50.190Z,101582.09
2018-10-09T17:28:19.314Z,101577.19
2018-10-09T17:30:48.527Z,101579.14
2018-10-09T17:33:17.690Z,101581.63
2018-10-09T17:35:47.640Z,101586.06
2018-10-09T17:38:16.740Z,101589.91
2018-10-09T17:40:47.677Z,101594.88
2018-10-09T17:43:16.914Z,101584.50
2018-10-09T17:45:46.042Z,101593.57
2018-10-09T17:48:15.170Z,101592.23
2018-10-09T17:50:44.440Z,101588.44
2018-10-09T17:53:14.795Z,101591.71
2018-10-09T17:55:44.565Z,101583.55
2018-10-09T17:58:15.137Z,101590.13
2018-10-09T18:00:44.374Z,101593.71
2018-10-09T18:03:13.604Z,101583.33
2018-10-09T18:05:42.717Z,101586.06
2018-10-09T18:08:11.792Z,101580.88
2018-10-09T18:10:41.542Z,101571.31
2018-10-09T18:13:10.756Z,101583.39
2018-10-09T18:15:39.918Z,101570.55
2018-10-09T18:18:09.142Z,101575.99
2018-10-09T18:20:39.094Z,101563.99
2018-10-09T18:23:08.444Z,101571.38
2018-10-09T18:25:39.105Z,101568.89
2018-10-09T18:28:09.481Z,101577.38
2018-10-09T18:30:38.596Z,101568.91
2018-10-09T18:33:07.839Z,101569.98
2018-10-09T18:35:37.075Z,101561.53
2018-10-09T18:38:06.220Z,101572.46
2018-10-09T18:40:35.354Z,101562.87
2018-10-09T18:43:05.121Z,101565.34
2018-10-09T18:45:36.338Z,101568.33
2018-10-09T18:48:05.422Z,101560.14
2018-10-09T18:50:34.526Z,101566.13
2018-10-09T18:53:03.906Z,101569.41
2018-10-09T18:55:33.040Z,101565.86
2018-10-09T18:58:03.148Z,101564.75
2018-10-09T19:00:32.550Z,101567.70
2018-10-09T19:03:01.748Z,101558.13
2018-10-09T19:05:31.986Z,101560.86
2018-10-09T19:08:01.331Z,101560.84
2018-10-09T19:10:31.231Z,101556.72
2018-10-09T19:13:03.367Z,101567.62
2018-10-09T19:15:32.671Z,101563.23
2018-10-09T19:18:01.873Z,101564.30
2018-10-09T19:20:31.106Z,101565.13
2018-10-09T19:23:01.117Z,101568.66
2018-10-09T19:25:30.323Z,101571.09
2018-10-09T19:27:59.524Z,101571.88
2018-10-09T19:30:28.741Z,101571.06
2018-10-09T19:32:57.846Z,101573.52
2018-10-09T19:35:28.519Z,101569.94
2018-10-09T19:37:58.211Z,101574.03
2018-10-09T19:40:27.377Z,101579.22
2018-10-09T19:42:56.470Z,101575.17
2018-10-09T19:45:25.637Z,101568.66
2018-10-09T19:47:54.732Z,101570.61
2018-10-09T19:50:23.856Z,101572.84
2018-10-09T19:52:52.958Z,101571.23
2018-10-09T19:55:22.155Z,101571.00
2018-10-09T19:57:51.223Z,101568.59
2018-10-09T20:00:20.428Z,101571.58
2018-10-09T20:02:49.499Z,101578.98
2018-10-09T20:05:18.970Z,101566.71
2018-10-09T20:07:48.145Z,101571.33
2018-10-09T20:10:17.401Z,101572.70
2018-10-09T20:12:47.112Z,101571.60
2018-10-09T20:15:17.114Z,101558.50
2018-10-09T20:17:46.496Z,101564.53
2018-10-09T20:20:16.347Z,101553.86
2018-10-09T20:22:45.985Z,101558.80
2018-10-09T20:25:15.087Z,101556.34
2018-10-09T20:27:44.986Z,101557.12
2018-10-09T20:30:14.093Z,101558.77
2018-10-09T20:32:43.186Z,101555.77
2018-10-09T20:35:12.368Z,101559.31
2018-10-09T20:37:44.415Z,101553.05
2018-10-09T20:40:13.630Z,101550.03
2018-10-09T20:42:42.892Z,101559.59
2018-10-09T20:45:12.311Z,101559.04
2018-10-09T20:47:44.588Z,101557.41
2018-10-09T20:51:19.258Z,101561.51
2018-10-09T20:53:48.979Z,101565.34
2018-10-09T20:56:18.319Z,101572.44
2018-10-09T20:58:47.526Z,101568.33
2018-10-09T21:01:16.744Z,101557.41
2018-10-09T21:03:45.919Z,101560.70
2018-10-09T21:06:15.525Z,101564.79
2018-10-09T21:08:44.650Z,101557.67
2018-10-09T21:11:13.882Z,101564.23
2018-10-09T21:13:43.734Z,101561.51
2018-10-09T21:16:12.855Z,101559.88
2018-10-09T21:18:42.024Z,101566.71
2018-10-09T21:21:11.856Z,101565.34
2018-10-09T21:23:41.061Z,101563.41
2018-10-09T21:26:10.215Z,101576.53
2018-10-09T21:28:39.389Z,101565.86
2018-10-09T21:31:08.554Z,101567.80
2018-10-09T21:33:37.712Z,101572.98
2018-10-09T21:36:07.050Z,101575.42
2018-10-09T21:38:36.253Z,101577.08
2018-10-09T21:41:06.394Z,101580.89
2018-10-09T21:43:35.567Z,101583.62
2018-10-09T21:46:05.778Z,101581.44
2018-10-09T21:48:34.848Z,101578.16
2018-10-09T21:51:04.153Z,101572.98
2018-10-09T21:53:33.371Z,101575.18
2018-10-09T21:56:02.578Z,101576.55
2018-10-09T21:58:31.751Z,101583.08
2018-10-09T22:01:05.987Z,101577.08
2018-10-09T22:03:35.736Z,101582.55
2018-10-09T22:06:04.879Z,101584.98
2018-10-09T22:08:34.009Z,101585.55
2018-10-09T22:11:04.169Z,101582.25
2018-10-09T22:13:33.496Z,101578.16
2018-10-09T22:16:02.691Z,101583.62
2018-10-09T22:18:31.864Z,101582.55
2018-10-09T22:21:01.000Z,101579.81
2018-10-09T22:23:30.167Z,101586.11
2018-10-09T22:26:00.157Z,101587.47
2018-10-09T22:28:29.345Z,101586.37
2018-10-09T22:31:15.046Z,101589.63
2018-10-09T22:33:59.661Z,101580.62
2018-10-09T22:36:46.681Z,101585.00
2018-10-09T22:39:31.472Z,101577.38
2018-10-09T22:42:19.995Z,101575.45
2018-10-09T22:45:05.662Z,101574.10
2018-10-09T22:47:52.713Z,101562.89
2018-10-09T22:50:40.486Z,101567.80
2018-10-09T22:53:24.259Z,101565.36
2018-10-09T22:56:11.151Z,101558.53
2018-10-09T22:58:40.457Z,101555.80
2018-10-09T23:01:29.725Z,101551.41
2018-10-09T23:04:15.754Z,101547.85
2018-10-09T23:07:04.805Z,101542.41
2018-10-09T23:09:47.728Z,101546.50
2018-10-09T23:12:32.999Z,101538.59
2018-10-09T23:15:02.814Z,101541.86
2018-10-09T23:17:49.156Z,101541.84
2018-10-09T23:20:37.854Z,101537.21
2018-10-09T23:23:07.340Z,101541.02
2018-10-09T23:25:36.670Z,101538.56
2018-10-09T23:28:05.726Z,101533.66
2018-10-09T23:30:35.464Z,101530.39
2018-10-09T23:33:04.534Z,101526.55
2018-10-09T23:35:33.702Z,101529.28
2018-10-09T23:38:02.997Z,101538.30
2018-10-09T23:40:32.098Z,101535.55
2018-10-09T23:43:02.174Z,101530.36
2018-10-09T23:48:24.224Z,101518.88
2018-10-09T23:50:53.402Z,101528.73
2018-10-09T23:53:22.596Z,101524.36
2018-10-09T23:55:51.907Z,101525.45
2018-10-09T23:58:21.003Z,101519.17
